sensor_id;sensor_type;location;lat;lon;timestamp;P1;durP1;ratioP1;P2;durP2;ratioP2
10250;SDS011;5170;58.692;12.478;2023-03-15T00:01:47;4.23;;;3.93;;
10250;SDS011;5170;58.692;12.478;2023-03-15T00:04:35;3.73;;;2.23;;
10250;SDS011;5170;58.692;12.478;2023-03-15T00:07:22;2.50;;;1.20;;
10250;SDS011;5170;58.692;12.478;2023-03-15T00:10:11;5.50;;;0.80;;
10250;SDS011;5170;58.692;12.478;2023-03-15T00:12:59;3.17;;;1.27;;
10250;SDS011;5170;58.692;12.478;2023-03-15T00:15:47;4.10;;;1.10;;
10250;SDS011;5170;58.692;12.478;2023-03-15T00:18:35;1.43;;;0.93;;
10250;SDS011;5170;58.692;12.478;2023-03-15T00:21:23;3.37;;;0.60;;
10250;SDS011;5170;58.692;12.478;2023-03-15T00:24:13;1.33;;;0.60;;
10250;SDS011;5170;58.692;12.478;2023-03-15T00:27:02;1.63;;;0.70;;
10250;SDS011;5170;58.692;12.478;2023-03-15T00:29:50;1.60;;;0.50;;
10250;SDS011;5170;58.692;12.478;2023-03-15T00:32:38;1.33;;;0.60;;
10250;SDS011;5170;58.692;12.478;2023-03-15T00:35:26;0.63;;;0.40;;
10250;SDS011;5170;58.692;12.478;2023-03-15T00:38:13;1.33;;;0.30;;
10250;SDS011;5170;58.692;12.478;2023-03-15T00:41:04;0.57;;;0.30;;
10250;SDS011;5170;58.692;12.478;2023-03-15T00:43:53;0.50;;;0.40;;
10250;SDS011;5170;58.692;12.478;2023-03-15T00:46:41;1.87;;;0.57;;
10250;SDS011;5170;58.692;12.478;2023-03-15T00:49:29;2.03;;;0.37;;
10250;SDS011;5170;58.692;12.478;2023-03-15T00:52:17;0.93;;;0.37;;
10250;SDS011;5170;58.692;12.478;2023-03-15T00:55:04;2.73;;;0.30;;
10250;SDS011;5170;58.692;12.478;2023-03-15T00:57:52;0.77;;;0.20;;
10250;SDS011;5170;58.692;12.478;2023-03-15T01:00:41;0.97;;;0.20;;
10250;SDS011;5170;58.692;12.478;2023-03-15T01:03:29;3.33;;;0.87;;
10250;SDS011;5170;58.692;12.478;2023-03-15T01:06:17;0.63;;;0.30;;
10250;SDS011;5170;58.692;12.478;2023-03-15T01:09:05;2.57;;;0.37;;
10250;SDS011;5170;58.692;12.478;2023-03-15T01:11:53;1.00;;;0.30;;
10250;SDS011;5170;58.692;12.478;2023-03-15T01:14:40;0.73;;;0.40;;
10250;SDS011;5170;58.692;12.478;2023-03-15T01:17:29;1.07;;;0.30;;
10250;SDS011;5170;58.692;12.478;2023-03-15T01:20:17;1.70;;;0.40;;
10250;SDS011;5170;58.692;12.478;2023-03-15T01:23:05;1.40;;;0.50;;
10250;SDS011;5170;58.692;12.478;2023-03-15T01:25:52;0.90;;;0.40;;
10250;SDS011;5170;58.692;12.478;2023-03-15T01:28:40;0.50;;;0.30;;
10250;SDS011;5170;58.692;12.478;2023-03-15T01:31:28;0.30;;;0.10;;
10250;SDS011;5170;58.692;12.478;2023-03-15T01:34:18;4.87;;;0.30;;
10250;SDS011;5170;58.692;12.478;2023-03-15T01:37:05;0.87;;;0.13;;
10250;SDS011;5170;58.692;12.478;2023-03-15T01:39:53;0.60;;;0.47;;
10250;SDS011;5170;58.692;12.478;2023-03-15T01:42:51;1.93;;;0.40;;
10250;SDS011;5170;58.692;12.478;2023-03-15T01:48:52;4.73;;;0.67;;
10250;SDS011;5170;58.692;12.478;2023-03-15T01:51:43;3.50;;;0.53;;
10250;SDS011;5170;58.692;12.478;2023-03-15T01:54:33;4.97;;;1.33;;
10250;SDS011;5170;58.692;12.478;2023-03-15T01:57:23;1.77;;;1.13;;
10250;SDS011;5170;58.692;12.478;2023-03-15T02:00:12;4.87;;;1.17;;
10250;SDS011;5170;58.692;12.478;2023-03-15T02:03:02;4.40;;;1.50;;
10250;SDS011;5170;58.692;12.478;2023-03-15T02:05:53;1.73;;;0.90;;
10250;SDS011;5170;58.692;12.478;2023-03-15T02:08:44;0.90;;;0.70;;
10250;SDS011;5170;58.692;12.478;2023-03-15T02:11:33;0.47;;;0.20;;
10250;SDS011;5170;58.692;12.478;2023-03-15T02:14:21;0.50;;;0.27;;
10250;SDS011;5170;58.692;12.478;2023-03-15T02:17:08;1.17;;;0.43;;
10250;SDS011;5170;58.692;12.478;2023-03-15T02:19:57;1.37;;;0.80;;
10250;SDS011;5170;58.692;12.478;2023-03-15T02:22:49;0.80;;;0.40;;
10250;SDS011;5170;58.692;12.478;2023-03-15T02:25:41;1.43;;;0.60;;
10250;SDS011;5170;58.692;12.478;2023-03-15T02:28:33;1.40;;;0.40;;
10250;SDS011;5170;58.692;12.478;2023-03-15T02:31:21;1.87;;;0.50;;
10250;SDS011;5170;58.692;12.478;2023-03-15T02:34:08;2.67;;;0.50;;
10250;SDS011;5170;58.692;12.478;2023-03-15T02:36:56;1.77;;;0.30;;
10250;SDS011;5170;58.692;12.478;2023-03-15T02:39:44;1.40;;;0.73;;
10250;SDS011;5170;58.692;12.478;2023-03-15T02:42:31;3.53;;;0.80;;
10250;SDS011;5170;58.692;12.478;2023-03-15T02:45:21;6.87;;;0.80;;
10250;SDS011;5170;58.692;12.478;2023-03-15T02:48:09;0.80;;;0.50;;
10250;SDS011;5170;58.692;12.478;2023-03-15T02:50:57;2.17;;;0.60;;
10250;SDS011;5170;58.692;12.478;2023-03-15T02:53:46;0.60;;;0.30;;
10250;SDS011;5170;58.692;12.478;2023-03-15T02:56:34;0.67;;;0.30;;
10250;SDS011;5170;58.692;12.478;2023-03-15T02:59:21;0.40;;;0.30;;
10250;SDS011;5170;58.692;12.478;2023-03-15T03:02:11;0.63;;;0.60;;
10250;SDS011;5170;58.692;12.478;2023-03-15T03:04:58;1.40;;;0.40;;
10250;SDS011;5170;58.692;12.478;2023-03-15T03:07:46;2.63;;;0.40;;
10250;SDS011;5170;58.692;12.478;2023-03-15T03:10:34;0.50;;;0.30;;
10250;SDS011;5170;58.692;12.478;2023-03-15T03:13:22;0.77;;;0.40;;
10250;SDS011;5170;58.692;12.478;2023-03-15T03:16:10;1.90;;;0.30;;
10250;SDS011;5170;58.692;12.478;2023-03-15T03:18:59;0.90;;;0.40;;
10250;SDS011;5170;58.692;12.478;2023-03-15T03:21:46;0.70;;;0.27;;
10250;SDS011;5170;58.692;12.478;2023-03-15T03:24:34;0.40;;;0.20;;
10250;SDS011;5170;58.692;12.478;2023-03-15T03:27:22;1.63;;;0.23;;
10250;SDS011;5170;58.692;12.478;2023-03-15T03:30:10;0.73;;;0.33;;
10250;SDS011;5170;58.692;12.478;2023-03-15T03:32:59;3.93;;;0.60;;
10250;SDS011;5170;58.692;12.478;2023-03-15T03:35:48;0.50;;;0.17;;
10250;SDS011;5170;58.692;12.478;2023-03-15T03:38:36;0.83;;;0.50;;
10250;SDS011;5170;58.692;12.478;2023-03-15T03:41:23;0.60;;;0.33;;
10250;SDS011;5170;58.692;12.478;2023-03-15T03:44:11;1.70;;;0.37;;
10250;SDS011;5170;58.692;12.478;2023-03-15T03:46:59;3.03;;;0.40;;
10250;SDS011;5170;58.692;12.478;2023-03-15T03:49:46;2.77;;;0.57;;
10250;SDS011;5170;58.692;12.478;2023-03-15T03:52:35;1.00;;;0.50;;
10250;SDS011;5170;58.692;12.478;2023-03-15T03:55:23;5.37;;;0.70;;
10250;SDS011;5170;58.692;12.478;2023-03-15T03:58:11;5.00;;;0.73;;
10250;SDS011;5170;58.692;12.478;2023-03-15T04:00:59;0.63;;;0.30;;
10250;SDS011;5170;58.692;12.478;2023-03-15T04:03:46;2.40;;;0.30;;
10250;SDS011;5170;58.692;12.478;2023-03-15T04:06:35;2.73;;;0.90;;
10250;SDS011;5170;58.692;12.478;2023-03-15T04:09:24;2.57;;;0.33;;
10250;SDS011;5170;58.692;12.478;2023-03-15T04:12:12;1.27;;;0.30;;
10250;SDS011;5170;58.692;12.478;2023-03-15T04:14:59;0.93;;;0.40;;
10250;SDS011;5170;58.692;12.478;2023-03-15T04:17:47;0.40;;;0.30;;
10250;SDS011;5170;58.692;12.478;2023-03-15T04:20:40;1.20;;;0.20;;
10250;SDS011;5170;58.692;12.478;2023-03-15T04:23:31;0.50;;;0.20;;
10250;SDS011;5170;58.692;12.478;2023-03-15T04:26:20;1.43;;;0.73;;
10250;SDS011;5170;58.692;12.478;2023-03-15T04:29:10;1.50;;;0.67;;
10250;SDS011;5170;58.692;12.478;2023-03-15T04:31:59;1.50;;;0.60;;
10250;SDS011;5170;58.692;12.478;2023-03-15T04:34:47;0.50;;;0.27;;
10250;SDS011;5170;58.692;12.478;2023-03-15T04:37:35;0.73;;;0.30;;
10250;SDS011;5170;58.692;12.478;2023-03-15T04:40:23;1.17;;;0.30;;
10250;SDS011;5170;58.692;12.478;2023-03-15T04:43:15;0.63;;;0.37;;
10250;SDS011;5170;58.692;12.478;2023-03-15T04:46:03;1.27;;;0.53;;
10250;SDS011;5170;58.692;12.478;2023-03-15T04:48:51;0.40;;;0.40;;
10250;SDS011;5170;58.692;12.478;2023-03-15T04:51:38;1.23;;;0.40;;
10250;SDS011;5170;58.692;12.478;2023-03-15T04:54:26;0.50;;;0.37;;
10250;SDS011;5170;58.692;12.478;2023-03-15T04:57:13;2.00;;;0.60;;
10250;SDS011;5170;58.692;12.478;2023-03-15T05:00:03;1.10;;;0.67;;
10250;SDS011;5170;58.692;12.478;2023-03-15T05:02:52;1.50;;;0.73;;
10250;SDS011;5170;58.692;12.478;2023-03-15T05:05:40;1.70;;;0.67;;
10250;SDS011;5170;58.692;12.478;2023-03-15T05:08:27;1.67;;;0.70;;
10250;SDS011;5170;58.692;12.478;2023-03-15T05:11:15;2.10;;;0.80;;
10250;SDS011;5170;58.692;12.478;2023-03-15T05:14:03;1.77;;;0.93;;
10250;SDS011;5170;58.692;12.478;2023-03-15T05:16:52;3.10;;;1.07;;
10250;SDS011;5170;58.692;12.478;2023-03-15T05:19:40;1.33;;;0.30;;
10250;SDS011;5170;58.692;12.478;2023-03-15T05:22:28;1.10;;;0.70;;
10250;SDS011;5170;58.692;12.478;2023-03-15T05:25:16;0.63;;;0.33;;
10250;SDS011;5170;58.692;12.478;2023-03-15T05:28:03;4.63;;;0.93;;
10250;SDS011;5170;58.692;12.478;2023-03-15T05:30:51;2.10;;;0.60;;
10250;SDS011;5170;58.692;12.478;2023-03-15T05:33:40;1.67;;;0.50;;
10250;SDS011;5170;58.692;12.478;2023-03-15T05:36:31;2.10;;;0.50;;
10250;SDS011;5170;58.692;12.478;2023-03-15T05:39:19;1.60;;;0.40;;
10250;SDS011;5170;58.692;12.478;2023-03-15T05:42:07;0.60;;;0.37;;
10250;SDS011;5170;58.692;12.478;2023-03-15T05:44:55;1.30;;;0.70;;
10250;SDS011;5170;58.692;12.478;2023-03-15T05:47:43;0.60;;;0.50;;
10250;SDS011;5170;58.692;12.478;2023-03-15T05:50:32;0.70;;;0.40;;
10250;SDS011;5170;58.692;12.478;2023-03-15T05:53:19;4.93;;;0.50;;
10250;SDS011;5170;58.692;12.478;2023-03-15T05:56:07;3.40;;;0.40;;
10250;SDS011;5170;58.692;12.478;2023-03-15T05:58:55;1.17;;;0.37;;
10250;SDS011;5170;58.692;12.478;2023-03-15T06:01:42;1.33;;;0.53;;
10250;SDS011;5170;58.692;12.478;2023-03-15T06:04:30;1.73;;;0.40;;
10250;SDS011;5170;58.692;12.478;2023-03-15T06:07:19;0.53;;;0.30;;
10250;SDS011;5170;58.692;12.478;2023-03-15T06:10:07;0.47;;;0.40;;
10250;SDS011;5170;58.692;12.478;2023-03-15T06:12:55;0.57;;;0.20;;
10250;SDS011;5170;58.692;12.478;2023-03-15T06:15:45;1.83;;;0.33;;
10250;SDS011;5170;58.692;12.478;2023-03-15T06:18:32;0.47;;;0.27;;
10250;SDS011;5170;58.692;12.478;2023-03-15T06:21:20;1.77;;;0.27;;
10250;SDS011;5170;58.692;12.478;2023-03-15T06:24:09;0.90;;;0.50;;
10250;SDS011;5170;58.692;12.478;2023-03-15T06:26:57;1.40;;;0.20;;
10250;SDS011;5170;58.692;12.478;2023-03-15T06:29:44;2.00;;;0.70;;
10250;SDS011;5170;58.692;12.478;2023-03-15T06:32:32;1.13;;;0.23;;
10250;SDS011;5170;58.692;12.478;2023-03-15T06:35:20;3.80;;;0.33;;
10250;SDS011;5170;58.692;12.478;2023-03-15T06:38:07;0.57;;;0.20;;
10250;SDS011;5170;58.692;12.478;2023-03-15T06:40:58;3.90;;;0.40;;
10250;SDS011;5170;58.692;12.478;2023-03-15T06:43:46;0.70;;;0.40;;
10250;SDS011;5170;58.692;12.478;2023-03-15T06:46:33;2.73;;;0.60;;
10250;SDS011;5170;58.692;12.478;2023-03-15T06:49:21;0.67;;;0.33;;
10250;SDS011;5170;58.692;12.478;2023-03-15T06:52:09;2.73;;;0.50;;
10250;SDS011;5170;58.692;12.478;2023-03-15T06:54:57;1.53;;;0.30;;
10250;SDS011;5170;58.692;12.478;2023-03-15T06:57:46;0.60;;;0.30;;
10250;SDS011;5170;58.692;12.478;2023-03-15T07:00:33;1.07;;;0.43;;
10250;SDS011;5170;58.692;12.478;2023-03-15T07:03:21;1.53;;;0.40;;
10250;SDS011;5170;58.692;12.478;2023-03-15T07:06:08;0.43;;;0.40;;
10250;SDS011;5170;58.692;12.478;2023-03-15T07:08:56;3.53;;;0.60;;
10250;SDS011;5170;58.692;12.478;2023-03-15T07:11:44;0.97;;;0.53;;
10250;SDS011;5170;58.692;12.478;2023-03-15T07:14:33;1.77;;;0.30;;
10250;SDS011;5170;58.692;12.478;2023-03-15T07:17:21;3.40;;;0.20;;
10250;SDS011;5170;58.692;12.478;2023-03-15T07:20:09;1.53;;;0.40;;
10250;SDS011;5170;58.692;12.478;2023-03-15T07:22:56;3.93;;;0.53;;
10250;SDS011;5170;58.692;12.478;2023-03-15T07:25:46;1.43;;;0.33;;
10250;SDS011;5170;58.692;12.478;2023-03-15T07:28:33;4.43;;;0.40;;
10250;SDS011;5170;58.692;12.478;2023-03-15T07:31:22;2.80;;;0.90;;
10250;SDS011;5170;58.692;12.478;2023-03-15T07:34:11;2.33;;;0.40;;
10250;SDS011;5170;58.692;12.478;2023-03-15T07:36:58;1.43;;;0.20;;
10250;SDS011;5170;58.692;12.478;2023-03-15T07:39:46;1.47;;;0.40;;
10250;SDS011;5170;58.692;12.478;2023-03-15T07:42:34;1.87;;;0.40;;
10250;SDS011;5170;58.692;12.478;2023-03-15T07:45:21;0.70;;;0.40;;
10250;SDS011;5170;58.692;12.478;2023-03-15T07:48:10;1.00;;;0.50;;
10250;SDS011;5170;58.692;12.478;2023-03-15T07:50:58;1.20;;;0.27;;
10250;SDS011;5170;58.692;12.478;2023-03-15T07:53:46;1.53;;;0.27;;
10250;SDS011;5170;58.692;12.478;2023-03-15T07:56:34;0.87;;;0.50;;
10250;SDS011;5170;58.692;12.478;2023-03-15T07:59:21;0.70;;;0.40;;
10250;SDS011;5170;58.692;12.478;2023-03-15T08:02:10;3.60;;;0.57;;
10250;SDS011;5170;58.692;12.478;2023-03-15T08:04:59;0.93;;;0.50;;
10250;SDS011;5170;58.692;12.478;2023-03-15T08:07:48;5.40;;;0.47;;
10250;SDS011;5170;58.692;12.478;2023-03-15T08:10:35;1.47;;;0.50;;
10250;SDS011;5170;58.692;12.478;2023-03-15T08:13:23;0.97;;;0.30;;
10250;SDS011;5170;58.692;12.478;2023-03-15T08:16:11;2.83;;;0.50;;
10250;SDS011;5170;58.692;12.478;2023-03-15T08:18:58;2.10;;;0.63;;
10250;SDS011;5170;58.692;12.478;2023-03-15T08:21:48;1.60;;;0.50;;
10250;SDS011;5170;58.692;12.478;2023-03-15T08:24:38;0.50;;;0.13;;
10250;SDS011;5170;58.692;12.478;2023-03-15T08:27:25;0.50;;;0.37;;
10250;SDS011;5170;58.692;12.478;2023-03-15T08:30:13;1.00;;;0.40;;
10250;SDS011;5170;58.692;12.478;2023-03-15T08:33:02;1.80;;;0.70;;
10250;SDS011;5170;58.692;12.478;2023-03-15T08:35:53;2.07;;;0.60;;
10250;SDS011;5170;58.692;12.478;2023-03-15T08:38:42;1.37;;;0.40;;
10250;SDS011;5170;58.692;12.478;2023-03-15T08:41:29;0.33;;;0.20;;
10250;SDS011;5170;58.692;12.478;2023-03-15T08:44:17;0.93;;;0.60;;
10250;SDS011;5170;58.692;12.478;2023-03-15T08:47:05;1.90;;;0.70;;
10250;SDS011;5170;58.692;12.478;2023-03-15T08:49:53;1.63;;;0.20;;
10250;SDS011;5170;58.692;12.478;2023-03-15T08:52:41;0.87;;;0.40;;
10250;SDS011;5170;58.692;12.478;2023-03-15T08:55:30;0.93;;;0.37;;
10250;SDS011;5170;58.692;12.478;2023-03-15T08:58:17;2.10;;;0.50;;
10250;SDS011;5170;58.692;12.478;2023-03-15T09:01:05;3.27;;;0.60;;
10250;SDS011;5170;58.692;12.478;2023-03-15T09:03:53;0.60;;;0.40;;
10250;SDS011;5170;58.692;12.478;2023-03-15T09:06:40;1.73;;;0.20;;
10250;SDS011;5170;58.692;12.478;2023-03-15T09:09:28;0.73;;;0.50;;
10250;SDS011;5170;58.692;12.478;2023-03-15T09:12:17;3.60;;;0.60;;
10250;SDS011;5170;58.692;12.478;2023-03-15T09:15:05;5.53;;;0.50;;
10250;SDS011;5170;58.692;12.478;2023-03-15T09:17:53;2.40;;;0.40;;
10250;SDS011;5170;58.692;12.478;2023-03-15T09:20:41;1.93;;;0.53;;
10250;SDS011;5170;58.692;12.478;2023-03-15T09:23:28;4.20;;;1.33;;
10250;SDS011;5170;58.692;12.478;2023-03-15T09:26:16;1.83;;;0.20;;
10250;SDS011;5170;58.692;12.478;2023-03-15T09:29:05;0.40;;;0.20;;
10250;SDS011;5170;58.692;12.478;2023-03-15T09:31:53;3.83;;;0.40;;
10250;SDS011;5170;58.692;12.478;2023-03-15T09:34:41;1.20;;;0.70;;
10250;SDS011;5170;58.692;12.478;2023-03-15T09:37:29;0.87;;;0.40;;
10250;SDS011;5170;58.692;12.478;2023-03-15T09:40:18;1.53;;;0.60;;
10250;SDS011;5170;58.692;12.478;2023-03-15T09:43:20;4.27;;;0.53;;
10250;SDS011;5170;58.692;12.478;2023-03-15T09:46:20;1.07;;;0.63;;
10250;SDS011;5170;58.692;12.478;2023-03-15T09:49:11;2.13;;;0.30;;
10250;SDS011;5170;58.692;12.478;2023-03-15T09:52:01;2.37;;;0.70;;
10250;SDS011;5170;58.692;12.478;2023-03-15T09:54:51;2.53;;;0.50;;
10250;SDS011;5170;58.692;12.478;2023-03-15T09:57:42;0.67;;;0.50;;
10250;SDS011;5170;58.692;12.478;2023-03-15T10:00:33;0.50;;;0.40;;
10250;SDS011;5170;58.692;12.478;2023-03-15T10:03:26;1.00;;;0.40;;
10250;SDS011;5170;58.692;12.478;2023-03-15T10:06:17;0.57;;;0.20;;
10250;SDS011;5170;58.692;12.478;2023-03-15T10:09:09;0.90;;;0.20;;
10250;SDS011;5170;58.692;12.478;2023-03-15T10:12:00;0.40;;;0.17;;
10250;SDS011;5170;58.692;12.478;2023-03-15T10:14:57;0.33;;;0.13;;
10250;SDS011;5170;58.692;12.478;2023-03-15T10:17:46;0.73;;;0.37;;
10250;SDS011;5170;58.692;12.478;2023-03-15T10:20:39;0.83;;;0.50;;
10250;SDS011;5170;58.692;12.478;2023-03-15T10:23:30;0.30;;;0.20;;
10250;SDS011;5170;58.692;12.478;2023-03-15T10:26:22;1.23;;;0.20;;
10250;SDS011;5170;58.692;12.478;2023-03-15T10:29:12;0.50;;;0.23;;
10250;SDS011;5170;58.692;12.478;2023-03-15T10:32:00;0.50;;;0.30;;
10250;SDS011;5170;58.692;12.478;2023-03-15T10:34:49;1.27;;;0.13;;
10250;SDS011;5170;58.692;12.478;2023-03-15T10:37:39;1.70;;;0.30;;
10250;SDS011;5170;58.692;12.478;2023-03-15T10:40:40;1.07;;;0.30;;
10250;SDS011;5170;58.692;12.478;2023-03-15T10:43:28;0.40;;;0.20;;
10250;SDS011;5170;58.692;12.478;2023-03-15T10:46:20;1.47;;;0.40;;
10250;SDS011;5170;58.692;12.478;2023-03-15T10:49:09;2.37;;;0.33;;
10250;SDS011;5170;58.692;12.478;2023-03-15T10:51:57;1.63;;;0.40;;
10250;SDS011;5170;58.692;12.478;2023-03-15T10:54:46;0.93;;;0.37;;
10250;SDS011;5170;58.692;12.478;2023-03-15T10:57:36;0.30;;;0.17;;
10250;SDS011;5170;58.692;12.478;2023-03-15T11:00:26;3.00;;;0.40;;
10250;SDS011;5170;58.692;12.478;2023-03-15T11:03:16;0.30;;;0.10;;
10250;SDS011;5170;58.692;12.478;2023-03-15T11:06:17;1.23;;;0.30;;
10250;SDS011;5170;58.692;12.478;2023-03-15T11:09:08;1.63;;;0.50;;
10250;SDS011;5170;58.692;12.478;2023-03-15T11:11:58;0.60;;;0.10;;
10250;SDS011;5170;58.692;12.478;2023-03-15T11:14:47;0.60;;;0.13;;
10250;SDS011;5170;58.692;12.478;2023-03-15T11:17:40;0.40;;;0.10;;
10250;SDS011;5170;58.692;12.478;2023-03-15T11:20:29;2.20;;;0.27;;
10250;SDS011;5170;58.692;12.478;2023-03-15T11:23:19;0.40;;;0.20;;
10250;SDS011;5170;58.692;12.478;2023-03-15T11:26:12;2.63;;;0.30;;
10250;SDS011;5170;58.692;12.478;2023-03-15T11:29:04;0.50;;;0.10;;
10250;SDS011;5170;58.692;12.478;2023-03-15T11:31:52;0.50;;;0.20;;
10250;SDS011;5170;58.692;12.478;2023-03-15T11:34:41;0.43;;;0.43;;
10250;SDS011;5170;58.692;12.478;2023-03-15T11:37:31;0.83;;;0.40;;
10250;SDS011;5170;58.692;12.478;2023-03-15T11:40:21;2.60;;;0.10;;
10250;SDS011;5170;58.692;12.478;2023-03-15T11:43:10;0.30;;;0.10;;
10250;SDS011;5170;58.692;12.478;2023-03-15T11:46:04;0.30;;;0.10;;
10250;SDS011;5170;58.692;12.478;2023-03-15T11:48:54;2.00;;;0.47;;
10250;SDS011;5170;58.692;12.478;2023-03-15T11:51:44;0.70;;;0.10;;
10250;SDS011;5170;58.692;12.478;2023-03-15T11:54:32;1.90;;;0.40;;
10250;SDS011;5170;58.692;12.478;2023-03-15T11:57:39;0.30;;;0.20;;
10250;SDS011;5170;58.692;12.478;2023-03-15T12:03:38;0.30;;;0.00;;
10250;SDS011;5170;58.692;12.478;2023-03-15T12:09:39;0.63;;;0.23;;
10250;SDS011;5170;58.692;12.478;2023-03-15T12:12:34;0.37;;;0.17;;
10250;SDS011;5170;58.692;12.478;2023-03-15T12:15:42;0.57;;;0.20;;
10250;SDS011;5170;58.692;12.478;2023-03-15T12:18:31;0.50;;;0.00;;
10250;SDS011;5170;58.692;12.478;2023-03-15T12:21:21;1.17;;;0.40;;
10250;SDS011;5170;58.692;12.478;2023-03-15T12:24:13;1.23;;;0.30;;
10250;SDS011;5170;58.692;12.478;2023-03-15T12:27:02;0.30;;;0.10;;
10250;SDS011;5170;58.692;12.478;2023-03-15T12:29:56;1.27;;;0.33;;
10250;SDS011;5170;58.692;12.478;2023-03-15T12:32:46;0.40;;;0.30;;
10250;SDS011;5170;58.692;12.478;2023-03-15T12:35:37;0.30;;;0.20;;
10250;SDS011;5170;58.692;12.478;2023-03-15T12:38:30;1.53;;;0.23;;
10250;SDS011;5170;58.692;12.478;2023-03-15T12:41:32;0.30;;;0.10;;
10250;SDS011;5170;58.692;12.478;2023-03-15T12:44:25;0.30;;;0.10;;
10250;SDS011;5170;58.692;12.478;2023-03-15T12:47:14;0.40;;;0.20;;
10250;SDS011;5170;58.692;12.478;2023-03-15T12:50:17;0.30;;;0.10;;
10250;SDS011;5170;58.692;12.478;2023-03-15T12:53:22;0.93;;;0.20;;
10250;SDS011;5170;58.692;12.478;2023-03-15T12:56:31;0.87;;;0.30;;
10250;SDS011;5170;58.692;12.478;2023-03-15T12:59:28;0.60;;;0.10;;
10250;SDS011;5170;58.692;12.478;2023-03-15T13:02:29;0.43;;;0.40;;
10250;SDS011;5170;58.692;12.478;2023-03-15T13:05:19;0.40;;;0.37;;
10250;SDS011;5170;58.692;12.478;2023-03-15T13:08:07;1.80;;;0.50;;
10250;SDS011;5170;58.692;12.478;2023-03-15T13:10:58;0.50;;;0.23;;
10250;SDS011;5170;58.692;12.478;2023-03-15T13:13:57;0.70;;;0.10;;
10250;SDS011;5170;58.692;12.478;2023-03-15T13:16:47;0.30;;;0.00;;
10250;SDS011;5170;58.692;12.478;2023-03-15T13:19:38;2.00;;;0.20;;
10250;SDS011;5170;58.692;12.478;2023-03-15T13:22:28;0.30;;;0.00;;
10250;SDS011;5170;58.692;12.478;2023-03-15T13:25:18;0.80;;;0.20;;
10250;SDS011;5170;58.692;12.478;2023-03-15T13:28:12;0.77;;;0.30;;
10250;SDS011;5170;58.692;12.478;2023-03-15T13:31:11;0.30;;;0.17;;
10250;SDS011;5170;58.692;12.478;2023-03-15T13:34:06;1.00;;;0.10;;
10250;SDS011;5170;58.692;12.478;2023-03-15T13:36:57;3.40;;;0.33;;
10250;SDS011;5170;58.692;12.478;2023-03-15T13:39:53;0.53;;;0.10;;
10250;SDS011;5170;58.692;12.478;2023-03-15T13:42:41;2.83;;;0.17;;
10250;SDS011;5170;58.692;12.478;2023-03-15T13:45:29;0.30;;;0.07;;
10250;SDS011;5170;58.692;12.478;2023-03-15T13:48:18;0.77;;;0.20;;
10250;SDS011;5170;58.692;12.478;2023-03-15T13:51:07;2.77;;;0.10;;
10250;SDS011;5170;58.692;12.478;2023-03-15T13:53:59;0.90;;;0.30;;
10250;SDS011;5170;58.692;12.478;2023-03-15T13:56:58;0.30;;;0.00;;
10250;SDS011;5170;58.692;12.478;2023-03-15T13:59:48;0.43;;;0.13;;
10250;SDS011;5170;58.692;12.478;2023-03-15T14:02:43;0.73;;;0.17;;
10250;SDS011;5170;58.692;12.478;2023-03-15T14:05:33;0.33;;;0.23;;
10250;SDS011;5170;58.692;12.478;2023-03-15T14:08:29;0.73;;;0.20;;
10250;SDS011;5170;58.692;12.478;2023-03-15T14:11:17;1.07;;;0.20;;
10250;SDS011;5170;58.692;12.478;2023-03-15T14:14:14;0.40;;;0.23;;
10250;SDS011;5170;58.692;12.478;2023-03-15T14:17:06;0.60;;;0.20;;
10250;SDS011;5170;58.692;12.478;2023-03-15T14:19:54;0.40;;;0.13;;
10250;SDS011;5170;58.692;12.478;2023-03-15T14:22:44;0.43;;;0.20;;
10250;SDS011;5170;58.692;12.478;2023-03-15T14:25:33;2.93;;;0.73;;
10250;SDS011;5170;58.692;12.478;2023-03-15T14:28:21;0.47;;;0.10;;
10250;SDS011;5170;58.692;12.478;2023-03-15T14:31:11;0.70;;;0.17;;
10250;SDS011;5170;58.692;12.478;2023-03-15T14:34:08;0.63;;;0.13;;
10250;SDS011;5170;58.692;12.478;2023-03-15T14:36:55;0.30;;;0.10;;
10250;SDS011;5170;58.692;12.478;2023-03-15T14:39:45;0.30;;;0.10;;
10250;SDS011;5170;58.692;12.478;2023-03-15T14:42:33;0.80;;;0.30;;
10250;SDS011;5170;58.692;12.478;2023-03-15T14:45:21;0.30;;;0.10;;
10250;SDS011;5170;58.692;12.478;2023-03-15T14:48:10;1.70;;;0.53;;
10250;SDS011;5170;58.692;12.478;2023-03-15T14:50:58;0.53;;;0.10;;
10250;SDS011;5170;58.692;12.478;2023-03-15T14:53:47;1.23;;;0.20;;
10250;SDS011;5170;58.692;12.478;2023-03-15T14:56:37;3.30;;;0.30;;
10250;SDS011;5170;58.692;12.478;2023-03-15T14:59:24;0.50;;;0.20;;
10250;SDS011;5170;58.692;12.478;2023-03-15T15:02:13;0.40;;;0.20;;
10250;SDS011;5170;58.692;12.478;2023-03-15T15:05:02;1.37;;;0.20;;
10250;SDS011;5170;58.692;12.478;2023-03-15T15:07:50;1.80;;;0.20;;
10250;SDS011;5170;58.692;12.478;2023-03-15T15:10:39;1.00;;;0.30;;
10250;SDS011;5170;58.692;12.478;2023-03-15T15:13:29;0.30;;;0.10;;
10250;SDS011;5170;58.692;12.478;2023-03-15T15:16:17;0.63;;;0.30;;
10250;SDS011;5170;58.692;12.478;2023-03-15T15:19:04;1.27;;;0.30;;
10250;SDS011;5170;58.692;12.478;2023-03-15T15:21:54;1.10;;;0.33;;
10250;SDS011;5170;58.692;12.478;2023-03-15T15:24:42;2.03;;;0.83;;
10250;SDS011;5170;58.692;12.478;2023-03-15T15:27:29;3.00;;;0.70;;
10250;SDS011;5170;58.692;12.478;2023-03-15T15:30:19;2.87;;;0.50;;
10250;SDS011;5170;58.692;12.478;2023-03-15T15:33:07;0.60;;;0.20;;
10250;SDS011;5170;58.692;12.478;2023-03-15T15:35:56;0.50;;;0.20;;
10250;SDS011;5170;58.692;12.478;2023-03-15T15:38:44;1.43;;;0.30;;
10250;SDS011;5170;58.692;12.478;2023-03-15T15:41:31;0.50;;;0.20;;
10250;SDS011;5170;58.692;12.478;2023-03-15T15:44:20;1.10;;;0.30;;
10250;SDS011;5170;58.692;12.478;2023-03-15T15:47:09;1.77;;;0.43;;
10250;SDS011;5170;58.692;12.478;2023-03-15T15:49:57;0.60;;;0.43;;
10250;SDS011;5170;58.692;12.478;2023-03-15T15:52:46;1.23;;;0.43;;
10250;SDS011;5170;58.692;12.478;2023-03-15T15:55:34;0.50;;;0.30;;
10250;SDS011;5170;58.692;12.478;2023-03-15T15:58:23;1.27;;;0.53;;
10250;SDS011;5170;58.692;12.478;2023-03-15T16:01:12;1.93;;;0.80;;
10250;SDS011;5170;58.692;12.478;2023-03-15T16:04:01;0.40;;;0.30;;
10250;SDS011;5170;58.692;12.478;2023-03-15T16:06:49;1.37;;;0.30;;
10250;SDS011;5170;58.692;12.478;2023-03-15T16:09:38;0.40;;;0.20;;
10250;SDS011;5170;58.692;12.478;2023-03-15T16:12:27;0.40;;;0.20;;
10250;SDS011;5170;58.692;12.478;2023-03-15T16:15:17;0.67;;;0.20;;
10250;SDS011;5170;58.692;12.478;2023-03-15T16:18:07;0.50;;;0.30;;
10250;SDS011;5170;58.692;12.478;2023-03-15T16:20:58;0.40;;;0.30;;
10250;SDS011;5170;58.692;12.478;2023-03-15T16:23:46;0.83;;;0.30;;
10250;SDS011;5170;58.692;12.478;2023-03-15T16:26:36;2.03;;;0.40;;
10250;SDS011;5170;58.692;12.478;2023-03-15T16:29:25;2.07;;;0.47;;
10250;SDS011;5170;58.692;12.478;2023-03-15T16:32:16;0.70;;;0.30;;
10250;SDS011;5170;58.692;12.478;2023-03-15T16:35:04;5.20;;;0.60;;
10250;SDS011;5170;58.692;12.478;2023-03-15T16:37:55;1.40;;;0.60;;
10250;SDS011;5170;58.692;12.478;2023-03-15T16:40:43;0.93;;;0.50;;
10250;SDS011;5170;58.692;12.478;2023-03-15T16:43:31;2.83;;;0.40;;
10250;SDS011;5170;58.692;12.478;2023-03-15T16:46:19;0.63;;;0.40;;
10250;SDS011;5170;58.692;12.478;2023-03-15T16:49:07;0.90;;;0.40;;
10250;SDS011;5170;58.692;12.478;2023-03-15T16:51:54;1.33;;;0.80;;
10250;SDS011;5170;58.692;12.478;2023-03-15T16:54:43;0.33;;;0.27;;
10250;SDS011;5170;58.692;12.478;2023-03-15T16:57:31;0.63;;;0.37;;
10250;SDS011;5170;58.692;12.478;2023-03-15T17:00:19;1.90;;;1.03;;
10250;SDS011;5170;58.692;12.478;2023-03-15T17:03:07;2.40;;;1.30;;
10250;SDS011;5170;58.692;12.478;2023-03-15T17:05:57;3.40;;;1.73;;
10250;SDS011;5170;58.692;12.478;2023-03-15T17:08:44;2.47;;;1.10;;
10250;SDS011;5170;58.692;12.478;2023-03-15T17:11:33;0.80;;;0.57;;